createdAt,value
2016-09-09T00:00:48.612Z,20.09
2016-09-09T00:01:48.615Z,20.04
2016-09-09T00:02:48.612Z,20.02
2016-09-09T00:03:48.616Z,19.91
2016-09-09T00:04:48.615Z,20
2016-09-09T00:05:48.613Z,20
2016-09-09T00:06:48.927Z,19.91
2016-09-09T00:07:48.627Z,19.99
2016-09-09T00:08:48.628Z,19.92
2016-09-09T00:09:48.645Z,19.81
2016-09-09T00:10:48.631Z,19.79
2016-09-09T00:11:48.630Z,19.88
2016-09-09T00:12:48.633Z,19.79
2016-09-09T00:13:48.630Z,19.82
2016-09-09T00:14:48.636Z,19.85
2016-09-09T00:15:48.635Z,19.85
2016-09-09T00:16:48.646Z,19.79
2016-09-09T00:17:48.650Z,19.73
2016-09-09T00:18:48.646Z,19.69
2016-09-09T00:19:48.654Z,19.67
2016-09-09T00:20:48.972Z,19.7
2016-09-09T00:21:48.646Z,19.73
2016-09-09T00:22:48.970Z,19.69
2016-09-09T00:23:48.668Z,19.7
2016-09-09T00:24:48.657Z,19.56
2016-09-09T00:25:48.665Z,19.58
2016-09-09T00:26:48.670Z,19.62
2016-09-09T00:27:48.659Z,19.67
2016-09-09T00:28:48.664Z,19.54
2016-09-09T00:29:48.664Z,19.49
2016-09-09T00:30:48.671Z,19.58
2016-09-09T00:31:48.681Z,19.54
2016-09-09T00:32:48.672Z,19.49
2016-09-09T00:33:48.675Z,19.59
2016-09-09T00:34:48.678Z,19.54
2016-09-09T00:35:48.676Z,19.54
2016-09-09T00:36:48.683Z,19.56
2016-09-09T00:37:48.681Z,19.59
2016-09-09T00:38:48.683Z,19.49
2016-09-09T00:39:48.688Z,19.56
2016-09-09T00:40:48.698Z,19.52
2016-09-09T00:41:48.937Z,19.51
2016-09-09T00:42:48.948Z,19.52
2016-09-09T00:43:48.699Z,19.49
2016-09-09T00:44:48.699Z,19.47
2016-09-09T00:45:48.699Z,19.51
2016-09-09T00:46:48.705Z,19.51
2016-09-09T00:47:48.709Z,19.48
2016-09-09T00:48:48.714Z,19.45
2016-09-09T00:49:49.046Z,19.48
2016-09-09T00:50:48.710Z,19.45
2016-09-09T00:51:48.710Z,19.44
2016-09-09T00:52:48.722Z,19.4
2016-09-09T00:53:48.712Z,19.37
2016-09-09T00:54:48.724Z,19.31
2016-09-09T00:55:48.717Z,19.37
2016-09-09T00:56:48.721Z,19.3
2016-09-09T00:57:48.727Z,19.29
2016-09-09T00:58:48.736Z,19.26
2016-09-09T00:59:48.725Z,19.3
2016-09-09T01:00:48.730Z,19.36
2016-09-09T01:01:48.729Z,19.29
2016-09-09T01:02:48.733Z,19.33
2016-09-09T01:03:48.735Z,19.34
2016-09-09T01:04:48.736Z,19.24
2016-09-09T01:05:48.814Z,19.24
2016-09-09T01:06:48.752Z,19.27
2016-09-09T01:07:48.755Z,19.19
2016-09-09T01:08:48.756Z,19.27
2016-09-09T01:09:48.756Z,19.16
2016-09-09T01:10:48.755Z,19.15
2016-09-09T01:11:48.752Z,19.15
2016-09-09T01:12:48.764Z,19.21
2016-09-09T01:13:48.756Z,19.09
2016-09-09T01:14:48.772Z,19.14
2016-09-09T01:15:48.761Z,19.15
2016-09-09T01:16:48.759Z,19.11
2016-09-09T01:17:48.761Z,19.14
2016-09-09T01:18:48.762Z,19.07
2016-09-09T01:19:48.764Z,19.12
2016-09-09T01:20:48.769Z,19.07
2016-09-09T01:21:48.779Z,19
2016-09-09T01:22:49.095Z,19.02
2016-09-09T01:23:48.773Z,19.08
2016-09-09T01:24:48.774Z,19.09
2016-09-09T01:25:48.783Z,19
2016-09-09T01:26:48.778Z,19.07
2016-09-09T01:27:49.105Z,19.08
2016-09-09T01:28:49.059Z,19.07
2016-09-09T01:29:48.783Z,19.07
2016-09-09T01:30:48.789Z,19.02
2016-09-09T01:31:48.786Z,19.07
2016-09-09T01:32:48.788Z,18.96
2016-09-09T01:33:48.801Z,18.9
2016-09-09T01:34:48.791Z,19.07
2016-09-09T01:35:48.793Z,18.98
2016-09-09T01:36:49.114Z,18.95
2016-09-09T01:37:49.141Z,18.88
2016-09-09T01:38:48.805Z,18.93
2016-09-09T01:39:49.136Z,18.93
2016-09-09T01:40:48.807Z,18.92
2016-09-09T01:41:48.808Z,18.98
2016-09-09T01:42:48.816Z,18.95
2016-09-09T01:43:48.810Z,18.98
2016-09-09T01:44:48.806Z,18.92
2016-09-09T01:45:48.811Z,18.92
2016-09-09T01:46:48.830Z,18.86
2016-09-09T01:47:48.823Z,18.92
2016-09-09T01:48:48.812Z,18.83
2016-09-09T01:49:48.818Z,18.84
2016-09-09T01:50:48.817Z,18.78
2016-09-09T01:51:48.821Z,18.71
2016-09-09T01:52:48.835Z,18.73
2016-09-09T01:53:49.157Z,18.75
2016-09-09T01:54:48.834Z,18.62
2016-09-09T01:55:48.839Z,18.68
2016-09-09T01:56:48.836Z,18.68
2016-09-09T01:57:48.834Z,18.71
2016-09-09T01:58:48.837Z,18.58
2016-09-09T01:59:48.839Z,18.59
2016-09-09T02:00:48.849Z,18.63
2016-09-09T02:01:48.838Z,18.56
2016-09-09T02:02:49.165Z,18.5
2016-09-09T02:03:48.846Z,18.53
2016-09-09T02:04:48.842Z,18.62
2016-09-09T02:05:48.843Z,18.52
2016-09-09T02:06:48.843Z,18.49
2016-09-09T02:07:48.850Z,18.55
2016-09-09T02:08:48.850Z,18.5
2016-09-09T02:09:48.848Z,18.5
2016-09-09T02:10:48.847Z,18.41
2016-09-09T02:11:48.849Z,18.52
2016-09-09T02:12:48.857Z,18.56
2016-09-09T02:13:49.179Z,18.56
2016-09-09T02:14:48.854Z,18.41
2016-09-09T02:15:49.117Z,18.41
2016-09-09T02:16:48.856Z,18.44
2016-09-09T02:17:48.862Z,18.55
2016-09-09T02:18:48.858Z,18.55
2016-09-09T02:19:48.864Z,18.49
2016-09-09T02:20:48.860Z,18.49
2016-09-09T02:21:48.864Z,18.44
2016-09-09T02:22:48.865Z,18.45
2016-09-09T02:23:48.872Z,18.41
2016-09-09T02:24:48.866Z,18.45
2016-09-09T02:25:48.877Z,18.37
2016-09-09T02:26:48.870Z,18.45
2016-09-09T02:27:48.886Z,18.37
2016-09-09T02:28:48.879Z,18.5
2016-09-09T02:29:48.881Z,18.37
2016-09-09T02:30:48.876Z,18.37
2016-09-09T02:31:48.882Z,18.33
2016-09-09T02:32:48.879Z,18.37
2016-09-09T02:33:49.202Z,18.38
2016-09-09T02:34:48.893Z,18.26
2016-09-09T02:35:48.902Z,18.31
2016-09-09T02:36:48.896Z,18.33
2016-09-09T02:37:48.893Z,18.34
2016-09-09T02:38:48.904Z,18.31
2016-09-09T02:39:48.904Z,18.35
2016-09-09T02:40:48.893Z,18.34
2016-09-09T02:41:49.218Z,18.35
2016-09-09T02:42:48.895Z,18.33
2016-09-09T02:43:48.901Z,18.29
2016-09-09T02:44:48.922Z,18.25
2016-09-09T02:45:48.920Z,18.26
2016-09-09T02:46:48.911Z,18.25
2016-09-09T02:47:48.915Z,18.26
2016-09-09T02:48:48.909Z,18.22
2016-09-09T02:49:48.924Z,18.22
2016-09-09T02:50:48.909Z,18.16
2016-09-09T02:51:48.917Z,18.19
2016-09-09T02:52:48.914Z,18.1
2016-09-09T02:53:48.921Z,18.13
2016-09-09T02:54:48.914Z,18.15
2016-09-09T02:55:48.923Z,18.01
2016-09-09T02:56:48.921Z,18.11
2016-09-09T02:57:48.924Z,18.01
2016-09-09T02:58:48.922Z,18.11
2016-09-09T02:59:48.942Z,18.07
2016-09-09T03:00:48.925Z,17.98
2016-09-09T03:01:48.929Z,18.04
2016-09-09T03:02:48.928Z,18
2016-09-09T03:03:48.932Z,18.03
2016-09-09T03:04:48.930Z,17.9
2016-09-09T03:05:48.937Z,17.95
2016-09-09T03:06:48.935Z,17.92
2016-09-09T03:07:49.265Z,17.87
2016-09-09T03:08:48.938Z,17.9
2016-09-09T03:09:48.940Z,17.87
2016-09-09T03:10:48.948Z,17.97
2016-09-09T03:11:48.942Z,17.79
2016-09-09T03:12:48.939Z,17.94
2016-09-09T03:13:48.967Z,17.82
2016-09-09T03:14:48.946Z,17.8
2016-09-09T03:15:48.947Z,17.8
2016-09-09T03:16:48.949Z,17.83
2016-09-09T03:17:48.960Z,17.82
2016-09-09T03:18:48.953Z,17.79
2016-09-09T03:19:48.961Z,17.78
2016-09-09T03:20:48.956Z,17.72
2016-09-09T03:21:48.966Z,17.74
2016-09-09T03:22:48.959Z,17.68
2016-09-09T03:23:48.969Z,17.76
2016-09-09T03:24:48.969Z,17.74
2016-09-09T03:25:48.961Z,17.72
2016-09-09T03:26:48.967Z,17.72
2016-09-09T03:27:48.970Z,17.71
2016-09-09T03:28:48.984Z,17.74
2016-09-09T03:29:48.972Z,17.74
2016-09-09T03:30:48.970Z,17.68
2016-09-09T03:31:48.976Z,17.67
2016-09-09T03:32:48.974Z,17.67
2016-09-09T03:33:48.974Z,17.71
2016-09-09T03:34:48.974Z,17.68
2016-09-09T03:35:48.994Z,17.7
2016-09-09T03:36:48.988Z,17.64
2016-09-09T03:37:48.980Z,17.7
2016-09-09T03:38:48.982Z,17.65
2016-09-09T03:39:48.984Z,17.63
2016-09-09T03:40:48.994Z,17.65
2016-09-09T03:41:48.992Z,17.65
2016-09-09T03:42:48.994Z,17.64
2016-09-09T03:43:49.016Z,17.6
2016-09-09T03:44:48.993Z,17.56
2016-09-09T03:45:48.994Z,17.57
2016-09-09T03:46:48.995Z,17.57
2016-09-09T03:47:48.997Z,17.54
2016-09-09T03:48:48.996Z,17.46
2016-09-09T03:49:48.995Z,17.51
2016-09-09T03:50:49.021Z,17.48
2016-09-09T03:51:48.999Z,17.52
2016-09-09T03:52:49.001Z,17.42
2016-09-09T03:53:49.011Z,17.39
2016-09-09T03:54:49.017Z,17.36
2016-09-09T03:55:49.009Z,17.45
2016-09-09T03:56:49.004Z,17.39
2016-09-09T03:57:49.006Z,17.34
2016-09-09T03:58:49.318Z,17.36
2016-09-09T03:59:49.022Z,17.39
2016-09-09T04:00:49.014Z,17.33
2016-09-09T04:01:49.012Z,17.31
2016-09-09T04:02:49.026Z,17.36
2016-09-09T04:03:49.334Z,17.36
2016-09-09T04:04:49.025Z,17.33
2016-09-09T04:05:49.264Z,17.36
2016-09-09T04:06:49.029Z,17.36
2016-09-09T04:07:49.036Z,17.33
2016-09-09T04:08:49.268Z,17.29
2016-09-09T04:09:49.034Z,17.29
2016-09-09T04:10:49.030Z,17.31
2016-09-09T04:11:49.033Z,17.31
2016-09-09T04:12:49.351Z,17.24
2016-09-09T04:13:49.029Z,17.26
2016-09-09T04:14:49.036Z,17.22
2016-09-09T04:15:49.030Z,17.27
2016-09-09T04:16:49.042Z,17.3
2016-09-09T04:17:49.035Z,17.29
2016-09-09T04:18:49.044Z,17.36
2016-09-09T04:19:49.040Z,17.29
2016-09-09T04:20:49.039Z,17.27
2016-09-09T04:21:49.044Z,17.36
2016-09-09T04:22:49.049Z,17.3
2016-09-09T04:23:49.050Z,17.27
2016-09-09T04:24:49.043Z,17.42
2016-09-09T04:25:49.381Z,17.36
2016-09-09T04:26:49.049Z,17.39
2016-09-09T04:27:49.051Z,17.41
2016-09-09T04:28:49.047Z,17.36
2016-09-09T04:29:49.053Z,17.41
2016-09-09T04:30:49.368Z,17.36
2016-09-09T04:31:49.053Z,17.34
2016-09-09T04:32:49.052Z,17.33
2016-09-09T04:33:49.055Z,17.31
2016-09-09T04:34:49.055Z,17.31
2016-09-09T04:35:49.068Z,17.3
2016-09-09T04:36:49.059Z,17.33
2016-09-09T04:37:49.068Z,17.3
2016-09-09T04:38:49.067Z,17.29
2016-09-09T04:39:49.064Z,17.31
2016-09-09T04:40:49.078Z,17.31
2016-09-09T04:41:49.086Z,17.34
2016-09-09T04:42:49.093Z,17.24
2016-09-09T04:43:49.085Z,17.34
2016-09-09T04:44:49.083Z,17.33
2016-09-09T04:45:49.085Z,17.33
2016-09-09T04:46:49.088Z,17.31
2016-09-09T04:47:49.089Z,17.33
2016-09-09T04:48:49.084Z,17.31
2016-09-09T04:49:49.091Z,17.33
2016-09-09T04:50:49.097Z,17.3
2016-09-09T04:51:49.092Z,17.31
2016-09-09T04:52:49.119Z,17.31
2016-09-09T04:53:49.101Z,17.31
2016-09-09T04:54:49.097Z,17.36
2016-09-09T04:55:49.093Z,17.34
2016-09-09T04:56:49.100Z,17.31
2016-09-09T04:57:49.094Z,17.36
2016-09-09T04:58:49.093Z,17.31
2016-09-09T04:59:49.091Z,17.26
2016-09-09T05:00:49.090Z,17.3
2016-09-09T05:01:49.101Z,17.31
2016-09-09T05:02:49.094Z,17.3
2016-09-09T05:03:49.118Z,17.33
2016-09-09T05:04:49.090Z,17.38
2016-09-09T05:05:49.099Z,17.42
2016-09-09T05:06:49.092Z,17.34
2016-09-09T05:07:49.099Z,17.38
2016-09-09T05:08:49.106Z,17.41
2016-09-09T05:09:49.096Z,17.42
2016-09-09T05:10:49.103Z,17.33
2016-09-09T05:11:49.098Z,17.44
2016-09-09T05:12:49.096Z,17.38
2016-09-09T05:13:49.108Z,17.41
2016-09-09T05:14:49.106Z,17.48
2016-09-09T05:15:49.111Z,17.49
2016-09-09T05:16:49.104Z,17.46
2016-09-09T05:17:49.113Z,17.49
2016-09-09T05:18:49.116Z,17.59
2016-09-09T05:19:49.114Z,17.54
2016-09-09T05:20:49.126Z,17.65
2016-09-09T05:21:49.355Z,17.72
2016-09-09T05:22:49.128Z,18.05
2016-09-09T05:23:49.127Z,18.22
2016-09-09T05:24:49.132Z,18.45
2016-09-09T05:25:49.117Z,18.58
2016-09-09T05:26:49.132Z,18.84
2016-09-09T05:27:49.137Z,19.12
2016-09-09T05:28:49.125Z,19.27
2016-09-09T05:29:49.135Z,19.39
2016-09-09T05:30:49.130Z,19.31
2016-09-09T05:31:49.141Z,19.33
2016-09-09T05:32:49.136Z,19.49
2016-09-09T05:33:49.142Z,19.47
2016-09-09T05:34:49.153Z,19.48
2016-09-09T05:35:49.145Z,19.47
2016-09-09T05:36:49.152Z,19.47
2016-09-09T05:37:49.153Z,19.37
2016-09-09T05:38:49.157Z,19.36
2016-09-09T05:39:49.147Z,19.16
2016-09-09T05:40:49.153Z,19.18
2016-09-09T05:41:49.161Z,19.09
2016-09-09T05:42:49.173Z,18.95
2016-09-09T05:43:49.195Z,18.98
2016-09-09T05:44:49.191Z,18.84
2016-09-09T05:45:49.199Z,18.88
2016-09-09T05:46:49.176Z,18.83
2016-09-09T05:47:49.187Z,18.81
2016-09-09T05:48:49.496Z,18.8
2016-09-09T05:49:49.185Z,18.71
2016-09-09T05:50:49.198Z,18.7
2016-09-09T05:51:49.203Z,18.7
2016-09-09T05:52:49.200Z,18.73
2016-09-09T05:53:49.181Z,18.66
2016-09-09T05:54:49.207Z,18.71
2016-09-09T05:55:49.178Z,18.73
2016-09-09T05:56:49.202Z,18.77
2016-09-09T05:57:49.207Z,18.73
2016-09-09T05:58:49.207Z,18.7
2016-09-09T05:59:49.213Z,18.71
2016-09-09T06:00:49.205Z,18.7
2016-09-09T06:01:49.210Z,18.75
2016-09-09T06:02:49.206Z,18.7
2016-09-09T06:03:49.210Z,18.78
2016-09-09T06:04:49.212Z,18.83
2016-09-09T06:05:49.217Z,18.81
2016-09-09T06:06:49.226Z,18.8
2016-09-09T06:07:49.219Z,18.88
2016-09-09T06:08:49.224Z,18.84
2016-09-09T06:09:49.522Z,18.89
2016-09-09T06:10:49.232Z,18.88
2016-09-09T06:11:49.226Z,18.83
2016-09-09T06:12:49.231Z,18.95
2016-09-09T06:13:49.225Z,18.96
2016-09-09T06:14:49.231Z,19.04
2016-09-09T06:15:49.231Z,19.02
2016-09-09T06:16:49.231Z,19.08
2016-09-09T06:17:49.231Z,19.11
2016-09-09T06:18:49.231Z,19.12
2016-09-09T06:19:49.238Z,19.21
2016-09-09T06:20:49.238Z,19.15
2016-09-09T06:21:49.234Z,19.12
2016-09-09T06:22:49.242Z,19.29
2016-09-09T06:23:49.271Z,19.22
2016-09-09T06:24:49.264Z,19.22
2016-09-09T06:25:49.251Z,19.22
2016-09-09T06:26:49.251Z,19.33
2016-09-09T06:27:49.251Z,19.41
2016-09-09T06:28:49.277Z,19.62
2016-09-09T06:29:49.251Z,19.79
2016-09-09T06:30:49.275Z,20.06
2016-09-09T06:31:49.269Z,20.36
2016-09-09T06:32:49.277Z,20.63
2016-09-09T06:33:49.281Z,20.72
2016-09-09T06:34:49.278Z,20.77
2016-09-09T06:35:49.280Z,20.67
2016-09-09T06:36:49.279Z,20.55
2016-09-09T06:37:49.281Z,20.55
2016-09-09T06:38:49.281Z,20.5
2016-09-09T06:39:49.284Z,20.36
2016-09-09T06:40:49.281Z,20.55
2016-09-09T06:41:49.285Z,21.02
2016-09-09T06:42:49.284Z,21.5
2016-09-09T06:43:49.300Z,21.91
2016-09-09T06:44:49.295Z,22.33
2016-09-09T06:45:49.297Z,22.8
2016-09-09T06:46:49.304Z,23.39
2016-09-09T06:47:49.304Z,23.62
2016-09-09T06:48:49.309Z,23.84
2016-09-09T06:49:49.333Z,24.13
2016-09-09T06:50:49.328Z,24.53
2016-09-09T06:51:49.338Z,24.7
2016-09-09T06:52:49.326Z,24.92
2016-09-09T06:53:49.345Z,25.08
2016-09-09T06:54:49.338Z,25.23
2016-09-09T06:55:49.341Z,25.33
2016-09-09T06:56:49.337Z,25.58
2016-09-09T06:57:49.359Z,25.58
2016-09-09T06:58:49.346Z,25.69
2016-09-09T06:59:49.353Z,25.66
2016-09-09T07:00:49.380Z,25.59
2016-09-09T07:01:49.368Z,25.36
2016-09-09T07:02:49.688Z,25.31
2016-09-09T07:03:49.375Z,25.22
2016-09-09T07:04:49.386Z,25.1
2016-09-09T07:05:49.393Z,25.07
2016-09-09T07:06:49.389Z,25.1
2016-09-09T07:07:49.398Z,25.17
2016-09-09T07:08:49.402Z,25.26
2016-09-09T07:09:49.720Z,25.1
2016-09-09T07:10:49.411Z,24.88
2016-09-09T07:11:49.426Z,24.66
2016-09-09T07:12:49.431Z,24.57
2016-09-09T07:13:49.438Z,24.45
2016-09-09T07:14:49.446Z,24.28
2016-09-09T07:15:49.439Z,24.4
2016-09-09T07:16:49.456Z,24.8
2016-09-09T07:17:49.516Z,25.17
2016-09-09T07:18:49.527Z,25.62
2016-09-09T07:19:49.469Z,25.83
2016-09-09T07:20:49.479Z,26.26
2016-09-09T07:21:49.473Z,26.59
2016-09-09T07:22:49.788Z,26.85
2016-09-09T07:23:49.484Z,27.26
2016-09-09T07:24:49.486Z,27.55
2016-09-09T07:25:49.494Z,27.85
2016-09-09T07:26:49.501Z,28.37
2016-09-09T07:27:49.513Z,28.67
2016-09-09T07:28:49.511Z,28.81
2016-09-09T07:29:49.516Z,28.79
2016-09-09T07:30:49.523Z,29.01
2016-09-09T07:31:49.539Z,29.27
2016-09-09T07:32:49.537Z,29.35
2016-09-09T07:33:49.545Z,29.47
2016-09-09T07:34:49.549Z,29.44
2016-09-09T07:35:49.559Z,29.35
2016-09-09T07:36:49.572Z,29.26
2016-09-09T07:37:49.587Z,29.42
2016-09-09T07:38:49.585Z,29.1
2016-09-09T07:39:49.834Z,28.98
2016-09-09T07:40:49.589Z,28.98
2016-09-09T07:41:49.601Z,29.1
2016-09-09T07:42:49.606Z,29.34
2016-09-09T07:43:49.620Z,29.16
2016-09-09T07:44:49.623Z,28.86
2016-09-09T07:45:49.639Z,28.72
2016-09-09T07:46:49.635Z,28.6
2016-09-09T07:47:49.646Z,28.78
2016-09-09T07:48:49.661Z,28.72
2016-09-09T07:49:49.659Z,28.59
2016-09-09T07:50:49.665Z,28.62
2016-09-09T07:51:49.926Z,28.79
2016-09-09T07:52:49.680Z,29.01
2016-09-09T07:53:49.699Z,29.02
2016-09-09T07:54:49.726Z,28.74
2016-09-09T07:55:49.780Z,28.29
2016-09-09T07:56:49.786Z,27.54
2016-09-09T07:57:49.722Z,27.1
2016-09-09T07:58:49.725Z,26.68
2016-09-09T07:59:49.741Z,26.1
2016-09-09T08:00:49.728Z,25.47
2016-09-09T08:01:49.735Z,24.98
2016-09-09T08:02:49.743Z,24.66
2016-09-09T08:03:49.753Z,24.7
2016-09-09T08:04:49.752Z,24.96
2016-09-09T08:05:49.760Z,25.62
2016-09-09T08:06:49.770Z,26.22
2016-09-09T08:07:49.777Z,26.73
2016-09-09T08:08:49.789Z,27.21
2016-09-09T08:09:49.793Z,27.7
2016-09-09T08:10:49.806Z,28.22
2016-09-09T08:11:49.793Z,28.45
2016-09-09T08:12:49.799Z,28.79
2016-09-09T08:13:49.878Z,28.97
2016-09-09T08:14:49.811Z,29.19
2016-09-09T08:15:49.841Z,29.26
2016-09-09T08:16:49.827Z,29.16
2016-09-09T08:17:49.831Z,29.13
2016-09-09T08:18:50.150Z,29.26
2016-09-09T08:19:49.846Z,29.12
2016-09-09T08:20:49.856Z,29.1
2016-09-09T08:21:49.868Z,29.27
2016-09-09T08:22:49.873Z,29.08
2016-09-09T08:23:49.876Z,28.78
2016-09-09T08:24:49.880Z,28.44
2016-09-09T08:25:49.883Z,27.92
2016-09-09T08:26:49.890Z,27.25
2016-09-09T08:27:49.898Z,26.68
2016-09-09T08:28:49.904Z,26.1
2016-09-09T08:29:49.919Z,25.68
2016-09-09T08:30:49.927Z,25.32
2016-09-09T08:31:49.938Z,25.04
2016-09-09T08:32:49.946Z,24.99
2016-09-09T08:33:49.998Z,24.84
2016-09-09T08:34:50.008Z,24.66
2016-09-09T08:35:50.521Z,24.57
2016-09-09T08:36:49.955Z,24.47
2016-09-09T08:37:49.963Z,24.35
2016-09-09T08:38:49.970Z,24.21
2016-09-09T08:39:49.972Z,24.2
2016-09-09T08:40:49.978Z,24.03
2016-09-09T08:41:49.991Z,24.02
2016-09-09T08:42:49.993Z,24.03
2016-09-09T08:43:49.993Z,24.03
2016-09-09T08:44:50.001Z,24.21
2016-09-09T08:45:50.005Z,24.17
2016-09-09T08:46:50.025Z,24.2
2016-09-09T08:47:50.335Z,24.16
2016-09-09T08:48:50.031Z,24.17
2016-09-09T08:49:50.044Z,24.28
2016-09-09T08:50:50.034Z,24.39
2016-09-09T08:51:50.040Z,24.24
2016-09-09T08:52:50.281Z,24.47
2016-09-09T08:53:50.357Z,24.5
2016-09-09T08:54:50.044Z,24.4
2016-09-09T08:55:50.053Z,24.47
2016-09-09T08:56:50.060Z,24.55
2016-09-09T08:57:50.063Z,24.51
2016-09-09T08:58:50.067Z,24.54
2016-09-09T08:59:50.071Z,24.63
2016-09-09T09:00:50.083Z,24.68
2016-09-09T09:01:50.082Z,24.69
2016-09-09T09:02:50.090Z,24.7
2016-09-09T09:03:50.102Z,24.7
2016-09-09T09:04:50.100Z,24.76
2016-09-09T09:05:50.111Z,24.84
2016-09-09T09:06:50.103Z,24.81
2016-09-09T09:07:50.108Z,24.84
2016-09-09T09:08:50.425Z,24.78
2016-09-09T09:09:50.116Z,24.76
2016-09-09T09:10:50.121Z,24.81
2016-09-09T09:11:50.124Z,24.84
2016-09-09T09:12:50.128Z,24.8
2016-09-09T09:13:50.134Z,24.88
2016-09-09T09:14:50.139Z,24.95
2016-09-09T09:15:50.140Z,25.04
2016-09-09T09:16:50.146Z,25.01
2016-09-09T09:17:50.149Z,25.03
2016-09-09T09:18:50.153Z,24.91
2016-09-09T09:19:50.164Z,24.98
2016-09-09T09:20:50.162Z,24.84
2016-09-09T09:21:50.170Z,24.89
2016-09-09T09:22:50.177Z,24.84
2016-09-09T09:23:50.181Z,24.89
2016-09-09T09:24:50.195Z,24.88
2016-09-09T09:25:50.187Z,24.92
2016-09-09T09:26:50.188Z,24.96
2016-09-09T09:27:50.206Z,25.07
2016-09-09T09:28:50.209Z,25.13
2016-09-09T09:29:50.202Z,25.06
2016-09-09T09:30:50.210Z,25.04
2016-09-09T09:31:50.210Z,24.92
2016-09-09T09:32:50.217Z,24.81
2016-09-09T09:33:50.223Z,24.69
2016-09-09T09:34:50.226Z,24.6
2016-09-09T09:35:50.231Z,24.5
2016-09-09T09:36:50.243Z,24.55
2016-09-09T09:37:50.249Z,24.53
2016-09-09T09:38:50.260Z,24.53
2016-09-09T09:39:50.266Z,24.61
2016-09-09T09:40:50.274Z,24.66
2016-09-09T09:41:50.263Z,24.81
2016-09-09T09:42:50.271Z,24.85
2016-09-09T09:43:50.270Z,24.88
2016-09-09T09:44:50.273Z,24.89
2016-09-09T09:45:50.272Z,24.8
2016-09-09T09:46:50.284Z,24.61
2016-09-09T09:47:50.283Z,24.6
2016-09-09T09:48:50.303Z,24.5
2016-09-09T09:49:50.291Z,24.5
2016-09-09T09:50:50.309Z,24.51
2016-09-09T09:51:50.305Z,24.65
2016-09-09T09:52:50.308Z,24.65
2016-09-09T09:53:50.313Z,24.65
2016-09-09T09:54:50.313Z,24.66
2016-09-09T09:55:50.317Z,24.69
2016-09-09T09:56:50.322Z,24.68
2016-09-09T09:57:50.324Z,24.7
2016-09-09T09:58:50.331Z,24.73
2016-09-09T09:59:50.348Z,24.74
2016-09-09T10:00:50.341Z,24.73
2016-09-09T10:01:50.343Z,24.7
2016-09-09T10:02:50.347Z,24.74
2016-09-09T10:03:50.354Z,24.7
2016-09-09T10:04:50.357Z,24.69
2016-09-09T10:05:50.373Z,24.88
2016-09-09T10:06:50.373Z,24.96
2016-09-09T10:07:50.374Z,25.11
2016-09-09T10:08:50.385Z,25.26
2016-09-09T10:09:50.379Z,25.32
2016-09-09T10:10:50.390Z,25.36
2016-09-09T10:11:50.389Z,25.5
2016-09-09T10:12:50.397Z,25.58
2016-09-09T10:13:50.395Z,25.6
2016-09-09T10:14:50.400Z,25.69
2016-09-09T10:15:50.410Z,25.78
2016-09-09T10:16:50.415Z,25.8
2016-09-09T10:17:50.424Z,25.66
2016-09-09T10:18:50.415Z,25.63
2016-09-09T10:19:50.440Z,25.48
2016-09-09T10:20:50.434Z,25.32
2016-09-09T10:21:50.434Z,25.26
2016-09-09T10:22:50.435Z,25.17
2016-09-09T10:23:50.443Z,25.16
2016-09-09T10:24:50.456Z,25.18
2016-09-09T10:25:50.464Z,25.21
2016-09-09T10:26:50.456Z,25.17
2016-09-09T10:27:50.464Z,25.1
2016-09-09T10:28:50.462Z,25.08
2016-09-09T10:29:50.468Z,25.21
2016-09-09T10:30:50.469Z,25.28
2016-09-09T10:31:50.483Z,25.22
2016-09-09T10:32:50.492Z,25.18
2016-09-09T10:33:50.490Z,25.23
2016-09-09T10:34:50.495Z,25.23
2016-09-09T10:35:50.497Z,25.23
2016-09-09T10:36:50.500Z,25.33
2016-09-09T10:37:50.502Z,25.35
2016-09-09T10:38:50.518Z,25.36
2016-09-09T10:39:50.534Z,25.38
2016-09-09T10:40:50.524Z,25.43
2016-09-09T10:41:50.525Z,25.33
2016-09-09T10:42:50.525Z,25.46
2016-09-09T10:43:50.532Z,25.5
2016-09-09T10:44:50.533Z,25.5
2016-09-09T10:45:50.539Z,25.46
2016-09-09T10:46:50.545Z,25.55
2016-09-09T10:47:50.555Z,25.62
2016-09-09T10:48:50.556Z,25.65
2016-09-09T10:49:50.563Z,25.63
2016-09-09T10:50:50.562Z,25.65
2016-09-09T10:51:50.581Z,25.59
2016-09-09T10:52:50.577Z,25.62
2016-09-09T10:53:50.574Z,25.63
2016-09-09T10:54:50.592Z,25.66
2016-09-09T10:55:50.589Z,25.6
2016-09-09T10:56:50.590Z,25.62
2016-09-09T10:57:50.592Z,25.6
2016-09-09T10:58:50.610Z,25.6
2016-09-09T10:59:50.612Z,25.58
2016-09-09T11:00:50.632Z,25.63
2016-09-09T11:01:50.612Z,25.65
2016-09-09T11:02:50.619Z,25.66
2016-09-09T11:03:50.617Z,25.69
2016-09-09T11:04:50.625Z,25.77
2016-09-09T11:05:50.627Z,25.85
2016-09-09T11:06:50.639Z,25.93
2016-09-09T11:07:50.646Z,26.03
2016-09-09T11:08:50.644Z,26.19
2016-09-09T11:09:50.665Z,26.1
2016-09-09T11:10:50.665Z,26.06
2016-09-09T11:11:50.676Z,25.93
2016-09-09T11:12:50.674Z,25.95
2016-09-09T11:13:50.678Z,25.95
2016-09-09T11:14:50.688Z,25.9
2016-09-09T11:15:50.680Z,25.96
2016-09-09T11:16:50.683Z,25.91
2016-09-09T11:17:50.685Z,25.8
2016-09-09T11:18:50.701Z,25.84
2016-09-09T11:19:50.698Z,25.83
2016-09-09T11:20:50.704Z,25.85
2016-09-09T11:21:50.709Z,25.84
2016-09-09T11:22:50.719Z,25.91
2016-09-09T11:23:50.716Z,25.88
2016-09-09T11:24:50.968Z,26.1
2016-09-09T11:25:50.729Z,26.19
2016-09-09T11:26:50.731Z,26.26
2016-09-09T11:27:50.744Z,26.43
2016-09-09T11:28:50.741Z,26.4
2016-09-09T11:29:50.744Z,26.47
2016-09-09T11:30:50.754Z,26.41
2016-09-09T11:31:50.751Z,26.55
2016-09-09T11:32:50.756Z,26.48
2016-09-09T11:33:50.763Z,26.45
2016-09-09T11:34:50.766Z,26.36
2016-09-09T11:35:50.777Z,26.31
2016-09-09T11:36:50.781Z,26.26
2016-09-09T11:37:50.780Z,26.33
2016-09-09T11:38:50.802Z,26.31
2016-09-09T11:39:50.792Z,26.34
2016-09-09T11:40:50.793Z,26.34
2016-09-09T11:41:50.803Z,26.18
2016-09-09T11:42:50.810Z,26.31
2016-09-09T11:43:50.810Z,26.22
2016-09-09T11:44:50.815Z,26.36
2016-09-09T11:45:51.075Z,26.21
2016-09-09T11:46:50.830Z,26.19
2016-09-09T11:47:50.831Z,26.33
2016-09-09T11:48:50.843Z,26.38
2016-09-09T11:49:50.843Z,26.43
2016-09-09T11:50:50.846Z,26.48
2016-09-09T11:51:50.849Z,26.41
2016-09-09T11:52:50.856Z,26.48
2016-09-09T11:53:51.177Z,26.59
2016-09-09T11:54:50.867Z,26.6
2016-09-09T11:55:50.876Z,26.43
2016-09-09T11:56:50.884Z,26.48
2016-09-09T11:57:50.881Z,26.51
2016-09-09T11:58:50.886Z,26.43
2016-09-09T11:59:51.210Z,26.45
2016-09-09T12:00:50.897Z,26.48
2016-09-09T12:01:50.897Z,26.51
2016-09-09T12:02:50.902Z,26.58
2016-09-09T12:03:51.155Z,26.65
2016-09-09T12:04:50.914Z,26.65
2016-09-09T12:05:50.927Z,26.73
2016-09-09T12:06:50.932Z,26.83
2016-09-09T12:07:51.253Z,26.95
2016-09-09T12:08:50.930Z,26.95
2016-09-09T12:09:51.251Z,26.84
2016-09-09T12:10:50.949Z,26.85
2016-09-09T12:11:50.945Z,26.78
2016-09-09T12:12:50.951Z,26.75
2016-09-09T12:13:50.958Z,26.83
2016-09-09T12:14:50.959Z,26.81
2016-09-09T12:15:50.966Z,26.85
2016-09-09T12:16:50.967Z,26.99
2016-09-09T12:17:50.993Z,26.95
2016-09-09T12:18:50.978Z,26.9
2016-09-09T12:19:51.001Z,26.92
2016-09-09T12:20:50.993Z,27.02
2016-09-09T12:21:51.005Z,26.9
2016-09-09T12:22:51.001Z,26.97
2016-09-09T12:23:51.010Z,27.05
2016-09-09T12:24:51.016Z,27.18
2016-09-09T12:25:51.014Z,27.22
2016-09-09T12:26:51.021Z,27.47
2016-09-09T12:27:51.027Z,27.52
2016-09-09T12:28:51.031Z,27.55
2016-09-09T12:29:51.035Z,27.36
2016-09-09T12:30:51.208Z,27.3
2016-09-09T12:31:51.055Z,27.32
2016-09-09T12:32:51.054Z,27.27
2016-09-09T12:33:51.059Z,27.11
2016-09-09T12:34:51.062Z,27.07
2016-09-09T12:35:51.066Z,27.02
2016-09-09T12:36:51.070Z,26.92
2016-09-09T12:37:51.072Z,26.92
2016-09-09T12:38:51.080Z,26.89
2016-09-09T12:39:51.087Z,26.99
2016-09-09T12:40:51.092Z,26.92
2016-09-09T12:41:51.100Z,27
2016-09-09T12:42:51.100Z,26.97
2016-09-09T12:43:51.107Z,26.83
2016-09-09T12:44:51.114Z,26.89
2016-09-09T12:45:51.115Z,26.96
2016-09-09T12:46:51.121Z,26.95
2016-09-09T12:47:51.127Z,26.96
2016-09-09T12:48:51.140Z,27.03
2016-09-09T12:49:51.144Z,27.12
2016-09-09T12:50:51.143Z,27.18
2016-09-09T12:51:51.148Z,27.33
2016-09-09T12:52:51.147Z,27.42
2016-09-09T12:53:51.157Z,27.39
2016-09-09T12:54:51.159Z,27.39
2016-09-09T12:55:51.165Z,27.36